Time;durP1;ratioP1;P1;durP2;ratioP2;P2;SDS_P1;SDS_P2;PMS_P1;PMS_P2;Temp;Humidity;BMP_temperature;BMP_pressure;BME280_temperature;BME280_humidity;BME280_pressure;Samples;Min_cycle;Max_cycle;Signal;HPM_P1;HPM_P2
2021/12/09 00:01:28;;;;;;;15.85;9.30;;;2.10;99.90;;;;;;4898317;29;20092;-80
2021/12/09 00:04:00;;;;;;;18.77;9.77;;;2.10;99.90;;;;;;4926649;29;20870;-80
2021/12/09 00:06:29;;;;;;;15.07;8.75;;;3.20;99.90;;;;;;4935585;29;20098;-80
2021/12/09 00:08:57;;;;;;;16.55;9.05;;;2.10;99.90;;;;;;4911071;29;20134;-80
2021/12/09 00:11:22;;;;;;;19.20;10.23;;;3.20;99.90;;;;;;4927200;29;20406;-80
2021/12/09 00:13:49;;;;;;;15.18;8.98;;;3.10;99.90;;;;;;4891641;29;20058;-81
2021/12/09 00:16:15;;;;;;;16.15;9.45;;;3.00;99.90;;;;;;4926617;29;20047;-81
2021/12/09 00:18:40;;;;;;;18.02;9.48;;;2.10;99.90;;;;;;4923195;29;20101;-80
2021/12/09 00:21:06;;;;;;;17.58;9.65;;;3.10;99.90;;;;;;4931345;29;20134;-80
2021/12/09 00:23:32;;;;;;;18.65;9.93;;;3.40;99.90;;;;;;4915402;29;20039;-81
2021/12/09 00:25:58;;;;;;;14.93;9.23;;;3.30;99.90;;;;;;4915307;29;20046;-80
2021/12/09 00:28:24;;;;;;;19.27;9.60;;;2.70;99.90;;;;;;4922754;29;20078;-80
2021/12/09 00:30:50;;;;;;;17.77;9.50;;;2.00;99.90;;;;;;4905910;29;20059;-81
2021/12/09 00:33:16;;;;;;;14.93;9.48;;;3.00;99.90;;;;;;4914598;29;21104;-80
2021/12/09 00:35:57;;;;;;;18.42;10.35;;;3.30;99.90;;;;;;4910336;29;20050;-80
2021/12/09 00:38:34;;;;;;;20.27;10.32;;;2.10;99.90;;;;;;4928931;28;20051;-80
2021/12/09 00:41:05;;;;;;;16.55;9.82;;;2.50;99.90;;;;;;4930171;29;20178;-81
2021/12/09 00:43:31;;;;;;;14.93;10.30;;;2.10;99.90;;;;;;4925906;29;20083;-81
2021/12/09 00:45:57;;;;;;;16.08;9.73;;;2.00;99.90;;;;;;4908499;29;20035;-80
2021/12/09 00:48:25;;;;;;;17.42;10.07;;;2.00;99.90;;;;;;4909764;29;20453;-81
2021/12/09 00:50:53;;;;;;;16.05;10.85;;;2.00;99.90;;;;;;4926066;29;20146;-82
2021/12/09 00:53:18;;;;;;;19.02;10.82;;;2.40;99.90;;;;;;4928881;29;20159;-81
2021/12/09 00:55:44;;;;;;;14.07;9.95;;;2.10;99.90;;;;;;4915282;29;20512;-82
2021/12/09 00:58:10;;;;;;;16.35;9.32;;;2.00;99.90;;;;;;4926549;29;20130;-82
2021/12/09 01:00:36;;;;;;;16.73;10.48;;;2.00;99.90;;;;;;4924544;29;20109;-82
2021/12/09 01:03:02;;;;;;;15.25;10.40;;;2.00;99.90;;;;;;4925590;29;20061;-82
2021/12/09 01:05:28;;;;;;;17.27;10.95;;;3.00;99.90;;;;;;4908493;29;20501;-82
2021/12/09 01:07:55;;;;;;;21.23;11.27;;;2.00;99.90;;;;;;4910627;29;20047;-83
2021/12/09 01:10:21;;;;;;;19.50;10.63;;;2.30;99.90;;;;;;4942578;29;20051;-82
2021/12/09 01:12:48;;;;;;;20.48;12.02;;;2.10;99.90;;;;;;4909832;29;20099;-82
2021/12/09 01:15:16;;;;;;;20.20;11.88;;;2.10;99.90;;;;;;4907882;29;20461;-81
2021/12/09 01:17:43;;;;;;;17.38;10.93;;;2.20;99.90;;;;;;4931245;29;20051;-82
2021/12/09 01:20:11;;;;;;;19.80;11.93;;;2.30;99.90;;;;;;4915269;29;20062;-82
2021/12/09 01:22:42;;;;;;;20.05;12.70;;;3.40;99.90;;;;;;4923835;29;20059;-82
2021/12/09 01:25:16;;;;;;;19.52;11.75;;;2.40;99.90;;;;;;4928462;29;20047;-82
2021/12/09 01:27:44;;;;;;;27.10;13.88;;;2.40;99.90;;;;;;4914647;29;20138;-83
2021/12/09 01:30:15;;;;;;;19.08;12.85;;;4.10;99.90;;;;;;4931100;29;20122;-82
2021/12/09 01:32:47;;;;;;;17.95;11.73;;;2.50;99.90;;;;;;4932360;29;20050;-82
2021/12/09 01:35:13;;;;;;;23.42;12.18;;;2.50;99.90;;;;;;4930386;29;20050;-81
2021/12/09 01:37:39;;;;;;;22.27;11.95;;;3.30;99.90;;;;;;4928968;29;20051;-82
2021/12/09 01:40:07;;;;;;;17.52;11.05;;;2.60;99.90;;;;;;4915324;29;20055;-82
2021/12/09 01:42:33;;;;;;;19.85;11.20;;;2.60;99.90;;;;;;4934447;29;20150;-82
2021/12/09 01:44:59;;;;;;;19.02;11.10;;;2.60;99.90;;;;;;4928611;29;20099;-84
2021/12/09 01:47:24;;;;;;;24.05;11.77;;;2.50;99.90;;;;;;4927167;29;20047;-82
2021/12/09 01:49:50;;;;;;;22.20;11.93;;;2.50;99.90;;;;;;4917849;29;20047;-81
2021/12/09 01:52:16;;;;;;;20.90;11.18;;;3.50;99.90;;;;;;4928093;29;20051;-81
2021/12/09 01:54:42;;;;;;;17.08;10.63;;;2.50;99.90;;;;;;4930667;29;20165;-82
2021/12/09 01:57:08;;;;;;;19.35;10.45;;;3.50;99.90;;;;;;4928526;29;20083;-81
2021/12/09 01:59:34;;;;;;;15.80;10.18;;;2.50;99.90;;;;;;4897448;29;20047;-80
2021/12/09 02:02:01;;;;;;;19.17;10.70;;;2.40;99.90;;;;;;4930423;29;20051;-82
2021/12/09 02:04:27;;;;;;;22.15;12.07;;;2.40;99.90;;;;;;4929066;29;20126;-80
2021/12/09 02:06:53;;;;;;;21.65;10.93;;;2.40;99.90;;;;;;4928221;29;20094;-80
2021/12/09 02:09:19;;;;;;;19.52;10.00;;;2.30;99.90;;;;;;4918261;29;20055;-80
2021/12/09 02:11:46;;;;;;;18.98;11.25;;;2.40;99.90;;;;;;4929715;29;20047;-80
2021/12/09 02:14:12;;;;;;;19.35;10.40;;;2.30;99.90;;;;;;4909561;29;20047;-79
2021/12/09 02:16:39;;;;;;;20.15;10.65;;;2.30;99.90;;;;;;4928108;29;20043;-80
2021/12/09 02:19:05;;;;;;;18.42;10.48;;;2.20;99.90;;;;;;4933178;29;20109;-80
2021/12/09 02:21:33;;;;;;;18.80;10.82;;;2.30;99.90;;;;;;4933480;29;20039;-82
2021/12/09 02:24:06;;;;;;;16.33;10.10;;;2.20;99.90;;;;;;4933514;29;20051;-81
2021/12/09 02:26:38;;;;;;;18.10;11.10;;;2.20;99.90;;;;;;4929082;29;20060;-81
2021/12/09 02:29:05;;;;;;;20.52;10.10;;;2.20;99.90;;;;;;4927817;29;20571;-81
2021/12/09 02:31:31;;;;;;;20.90;11.43;;;2.60;99.90;;;;;;4929190;29;20047;-80
2021/12/09 02:33:58;;;;;;;21.55;11.73;;;2.10;99.90;;;;;;4928987;29;20464;-81
2021/12/09 02:36:24;;;;;;;19.50;11.23;;;2.10;99.90;;;;;;4910485;29;20075;-80
2021/12/09 02:38:51;;;;;;;21.65;11.50;;;2.10;99.90;;;;;;4910774;29;20059;-80
2021/12/09 02:41:21;;;;;;;20.20;11.60;;;2.10;99.90;;;;;;4928082;29;20571;-79
2021/12/09 02:43:50;;;;;;;23.23;11.27;;;2.20;99.90;;;;;;4928392;29;20055;-79
2021/12/09 02:46:17;;;;;;;21.08;11.23;;;2.30;99.90;;;;;;4943628;29;20039;-80
2021/12/09 02:48:43;;;;;;;19.35;11.02;;;3.20;99.90;;;;;;4924587;28;20062;-80
2021/12/09 02:51:09;;;;;;;31.63;12.05;;;2.00;99.90;;;;;;4944007;28;20054;-80
2021/12/09 02:53:35;;;;;;;20.05;11.90;;;2.40;99.90;;;;;;4927903;29;20134;-80
2021/12/09 02:56:03;;;;;;;22.98;12.65;;;2.10;99.90;;;;;;4926947;29;20098;-80
2021/12/09 02:58:29;;;;;;;22.52;12.85;;;2.10;99.90;;;;;;4911531;29;20106;-80
2021/12/09 03:01:12;;;;;;;23.40;12.20;;;2.10;99.90;;;;;;4926999;29;20051;-80
2021/12/09 03:03:45;;;;;;;20.00;11.35;;;2.10;99.90;;;;;;4927590;29;20059;-79
2021/12/09 03:06:11;;;;;;;20.60;12.30;;;2.10;99.90;;;;;;4928496;29;20044;-80
2021/12/09 03:08:38;;;;;;;19.85;12.05;;;2.10;99.90;;;;;;4927679;29;20102;-80
2021/12/09 03:11:09;;;;;;;22.00;11.93;;;2.10;99.90;;;;;;4914081;29;20079;-80
2021/12/09 03:13:36;;;;;;;21.60;11.23;;;2.10;99.90;;;;;;4916394;29;20071;-80
2021/12/09 03:16:04;;;;;;;22.20;12.07;;;2.70;99.90;;;;;;4931941;29;20473;-80
2021/12/09 03:18:30;;;;;;;19.95;11.73;;;2.10;99.90;;;;;;4916767;29;20055;-80
2021/12/09 03:20:56;;;;;;;22.42;11.95;;;2.20;99.90;;;;;;4944396;28;20094;-80
2021/12/09 03:23:22;;;;;;;18.05;12.30;;;2.30;99.90;;;;;;4913861;29;20052;-80
2021/12/09 03:25:49;;;;;;;26.50;11.43;;;3.30;99.90;;;;;;4926154;29;20083;-81
2021/12/09 03:28:16;;;;;;;21.27;11.88;;;3.60;99.90;;;;;;4928534;29;20130;-80
2021/12/09 03:30:42;;;;;;;21.08;11.40;;;3.50;99.90;;;;;;4911684;29;20059;-80
2021/12/09 03:33:07;;;;;;;21.67;12.05;;;2.40;99.90;;;;;;4926502;29;20130;-80
2021/12/09 03:35:33;;;;;;;21.67;11.88;;;2.00;99.90;;;;;;4936380;29;20075;-80
2021/12/09 03:38:00;;;;;;;26.55;12.80;;;2.40;99.90;;;;;;4915758;29;20052;-81
2021/12/09 03:40:25;;;;;;;22.83;12.30;;;2.10;99.90;;;;;;4932116;29;20058;-81
2021/12/09 03:42:51;;;;;;;21.08;12.40;;;2.10;99.90;;;;;;4927573;29;20043;-81
2021/12/09 03:45:17;;;;;;;23.42;14.02;;;2.10;99.90;;;;;;4923069;29;20050;-81
2021/12/09 03:47:43;;;;;;;20.42;12.65;;;2.10;99.90;;;;;;4926801;29;20045;-81
2021/12/09 03:50:10;;;;;;;27.38;13.23;;;2.10;99.90;;;;;;4925666;29;20417;-80
2021/12/09 03:52:36;;;;;;;23.60;12.52;;;2.40;99.90;;;;;;4926388;29;20101;-80
2021/12/09 03:55:05;;;;;;;25.88;13.07;;;3.00;99.90;;;;;;4931169;29;20525;-80
2021/12/09 03:57:31;;;;;;;19.98;11.90;;;2.10;99.90;;;;;;4916260;29;20240;-81
2021/12/09 03:59:57;;;;;;;24.38;12.30;;;2.20;99.90;;;;;;4911860;29;20426;-81
2021/12/09 04:02:23;;;;;;;19.95;12.65;;;3.50;99.90;;;;;;4923218;29;20051;-80
2021/12/09 04:04:49;;;;;;;17.98;11.52;;;2.10;99.90;;;;;;4892921;29;20048;-80
2021/12/09 04:07:14;;;;;;;18.73;11.00;;;2.10;99.90;;;;;;4926446;29;20051;-81
2021/12/09 04:09:40;;;;;;;19.10;11.88;;;2.00;99.90;;;;;;4912186;29;20048;-80
2021/12/09 04:12:09;;;;;;;22.67;12.20;;;3.50;99.90;;;;;;4924497;29;20135;-80
2021/12/09 04:14:35;;;;;;;21.50;12.25;;;2.00;99.90;;;;;;4924993;29;20145;-80
2021/12/09 04:17:01;;;;;;;24.40;12.77;;;3.10;99.90;;;;;;4930184;29;20055;-81
2021/12/09 04:19:27;;;;;;;28.30;12.63;;;2.00;99.90;;;;;;4927101;29;20077;-80
2021/12/09 04:21:53;;;;;;;22.08;12.35;;;3.00;99.90;;;;;;4926495;29;20049;-80
2021/12/09 04:24:20;;;;;;;23.00;12.57;;;1.90;99.90;;;;;;4924106;29;20047;-80
2021/12/09 04:26:49;;;;;;;23.40;11.57;;;2.70;99.90;;;;;;4915822;29;20051;-80
2021/12/09 04:29:16;;;;;;;25.38;11.75;;;2.80;99.90;;;;;;4914171;29;20090;-81
2021/12/09 04:31:43;;;;;;;19.48;12.10;;;2.10;99.90;;;;;;4929885;29;20094;-80
2021/12/09 04:34:10;;;;;;;20.35;11.40;;;1.80;99.90;;;;;;4924156;29;20516;-80
2021/12/09 04:36:38;;;;;;;18.17;11.57;;;2.10;99.90;;;;;;4927331;29;20086;-81
2021/12/09 04:39:04;;;;;;;23.67;12.90;;;3.30;99.90;;;;;;4925248;29;20090;-80
2021/12/09 04:41:30;;;;;;;21.50;11.43;;;1.80;99.90;;;;;;4929753;29;20055;-80
2021/12/09 04:43:56;;;;;;;24.27;12.05;;;1.80;99.90;;;;;;4926086;29;20137;-81
2021/12/09 04:46:22;;;;;;;22.55;11.95;;;1.80;99.90;;;;;;4940700;29;20065;-81
2021/12/09 04:48:47;;;;;;;22.98;12.85;;;1.80;99.90;;;;;;4926804;29;20071;-80
2021/12/09 04:51:13;;;;;;;20.30;11.90;;;1.80;99.90;;;;;;4913823;29;20043;-81
2021/12/09 04:53:39;;;;;;;19.70;11.43;;;1.80;99.90;;;;;;4928665;29;20067;-79
2021/12/09 04:56:05;;;;;;;20.65;11.25;;;1.80;99.90;;;;;;4925182;29;20049;-82
2021/12/09 04:58:31;;;;;;;19.35;11.68;;;1.70;99.90;;;;;;4912803;29;20058;-83
2021/12/09 05:01:00;;;;;;;19.83;10.60;;;2.20;99.90;;;;;;4916281;29;20043;-82
2021/12/09 05:03:26;;;;;;;21.30;11.20;;;1.70;99.90;;;;;;4907219;29;20521;-80
2021/12/09 05:05:54;;;;;;;25.63;11.75;;;1.70;99.90;;;;;;4915105;29;20454;-82
2021/12/09 05:08:22;;;;;;;17.95;10.52;;;1.50;99.90;;;;;;4910867;29;20397;-82
2021/12/09 05:10:59;;;;;;;21.63;10.93;;;1.70;99.90;;;;;;4926426;29;20078;-82
2021/12/09 05:13:28;;;;;;;23.60;11.10;;;1.60;99.90;;;;;;4916011;29;20133;-82
2021/12/09 05:15:55;;;;;;;18.48;10.15;;;1.60;99.90;;;;;;4909988;29;20405;-82
2021/12/09 05:18:24;;;;;;;20.85;9.90;;;1.60;99.90;;;;;;4916433;29;20508;-83
2021/12/09 05:20:50;;;;;;;21.27;11.02;;;1.60;99.90;;;;;;4911946;29;20055;-82
2021/12/09 05:23:17;;;;;;;22.30;10.40;;;1.90;99.90;;;;;;4908058;29;20051;-82
2021/12/09 05:25:43;;;;;;;21.83;12.15;;;1.60;99.90;;;;;;4909002;29;20045;-82
2021/12/09 05:28:12;;;;;;;19.05;10.55;;;1.60;99.90;;;;;;4913378;29;20054;-82
2021/12/09 05:32:07;;;;;;;17.67;10.35;;;3.20;99.90;;;;;;4909096;29;20126;-81
2021/12/09 05:33:23;;;;;;;17.95;10.13;;;1.60;99.90;;;;;;4914189;29;20150;-83
2021/12/09 05:35:49;;;;;;;20.42;9.90;;;0.60;99.90;;;;;;4910144;29;20126;-82
2021/12/09 05:38:15;;;;;;;24.42;10.20;;;3.00;99.90;;;;;;4913994;29;20062;-82
2021/12/09 05:40:41;;;;;;;19.42;10.38;;;1.50;99.90;;;;;;4929603;29;20051;-82
2021/12/09 05:43:06;;;;;;;24.27;9.88;;;2.20;99.90;;;;;;4909702;29;20500;-82
2021/12/09 05:45:32;;;;;;;23.08;10.70;;;1.50;99.90;;;;;;4925422;29;20043;-82
2021/12/09 05:47:58;;;;;;;21.30;10.65;;;1.50;99.90;;;;;;4925398;29;20131;-82
2021/12/09 05:50:24;;;;;;;17.25;10.43;;;2.10;99.90;;;;;;4906465;29;20047;-84
2021/12/09 05:52:50;;;;;;;16.67;10.30;;;1.50;99.90;;;;;;4911644;29;20059;-82
2021/12/09 05:55:16;;;;;;;21.58;11.45;;;1.50;99.90;;;;;;4924943;29;20047;-82
2021/12/09 05:57:41;;;;;;;23.17;10.05;;;3.00;99.90;;;;;;4940792;28;20055;-82
2021/12/09 06:00:08;;;;;;;15.07;10.10;;;1.50;99.90;;;;;;4879665;29;20490;-82
2021/12/09 06:02:35;;;;;;;20.67;9.88;;;1.50;99.90;;;;;;4924494;29;20058;-81
2021/12/09 06:05:05;;;;;;;21.83;11.15;;;3.00;99.90;;;;;;4913819;29;20054;-82
2021/12/09 06:07:31;;;;;;;19.60;11.10;;;1.50;99.90;;;;;;4924405;29;20058;-82
2021/12/09 06:10:00;;;;;;;19.92;10.48;;;2.10;99.90;;;;;;4924477;29;20051;-83
2021/12/09 06:12:26;;;;;;;20.48;11.15;;;1.60;99.90;;;;;;4917788;29;20043;-82
2021/12/09 06:14:54;;;;;;;18.05;10.85;;;1.60;99.90;;;;;;4930220;29;20519;-81
2021/12/09 06:17:20;;;;;;;23.85;9.85;;;1.50;99.90;;;;;;4908453;29;20079;-82
2021/12/09 06:19:46;;;;;;;21.60;9.35;;;3.00;99.90;;;;;;4931731;29;20492;-82
2021/12/09 06:22:12;;;;;;;24.38;10.60;;;2.50;99.90;;;;;;4913395;29;20043;-81
2021/12/09 06:24:38;;;;;;;21.35;9.25;;;2.20;99.90;;;;;;4925198;29;20047;-83
2021/12/09 06:27:06;;;;;;;17.20;9.95;;;2.10;99.90;;;;;;4916363;29;20047;-82
2021/12/09 06:29:32;;;;;;;21.63;10.57;;;1.60;99.90;;;;;;4927247;29;20103;-81
2021/12/09 06:31:59;;;;;;;19.50;8.93;;;3.00;99.90;;;;;;4930546;29;20051;-82
2021/12/09 06:34:25;;;;;;;16.77;9.18;;;1.10;99.90;;;;;;4896279;28;20054;-82
2021/12/09 06:36:51;;;;;;;23.58;10.05;;;2.00;99.90;;;;;;4899418;29;20059;-82
2021/12/09 06:39:17;;;;;;;23.48;9.55;;;3.10;99.90;;;;;;4913259;29;20059;-82
2021/12/09 06:41:44;;;;;;;19.90;9.65;;;1.50;99.90;;;;;;4924514;29;20047;-83
2021/12/09 06:44:15;;;;;;;23.80;9.82;;;2.80;99.90;;;;;;4893164;29;20089;-81
2021/12/09 06:46:41;;;;;;;20.27;9.30;;;1.50;99.90;;;;;;4909246;29;20135;-81
2021/12/09 06:49:07;;;;;;;21.70;9.88;;;2.80;99.90;;;;;;4925134;29;20036;-82
2021/12/09 06:51:36;;;;;;;23.30;10.65;;;1.80;99.90;;;;;;4920936;29;20051;-82
2021/12/09 06:54:02;;;;;;;22.02;10.40;;;2.30;99.90;;;;;;4924868;29;20058;-82
2021/12/09 06:56:30;;;;;;;28.13;10.75;;;2.80;99.90;;;;;;4913545;29;20048;-82
2021/12/09 06:58:56;;;;;;;18.90;9.50;;;1.50;99.90;;;;;;4941095;28;20044;-82
2021/12/09 07:01:22;;;;;;;20.80;9.82;;;1.80;99.90;;;;;;4927254;29;20048;-82
2021/12/09 07:03:47;;;;;;;16.13;8.98;;;1.50;99.90;;;;;;4928006;29;20051;-82
2021/12/09 07:06:14;;;;;;;21.08;10.05;;;1.60;99.90;;;;;;4942178;28;20485;-82
2021/12/09 07:08:49;;;;;;;23.25;10.15;;;1.50;99.90;;;;;;4908434;29;20121;-80
2021/12/09 07:11:17;;;;;;;25.08;10.45;;;1.50;99.90;;;;;;4926002;29;20109;-81
2021/12/09 07:13:45;;;;;;;18.05;9.00;;;1.50;99.90;;;;;;4942219;28;20500;-79
2021/12/09 07:16:11;;;;;;;20.42;9.88;;;1.60;99.90;;;;;;4926618;29;20051;-81
2021/12/09 07:18:37;;;;;;;19.88;10.43;;;2.00;99.90;;;;;;4925929;29;20054;-80
2021/12/09 07:21:04;;;;;;;24.63;10.05;;;3.00;99.90;;;;;;4927022;28;20044;-81
2021/12/09 07:23:30;;;;;;;20.98;9.10;;;1.50;99.90;;;;;;4923994;29;20109;-82
2021/12/09 07:25:57;;;;;;;23.40;10.10;;;1.50;99.90;;;;;;4910065;29;20579;-83
2021/12/09 07:28:23;;;;;;;20.42;9.82;;;2.20;99.90;;;;;;4924453;29;20101;-82
2021/12/09 07:30:49;;;;;;;23.85;10.23;;;1.60;99.90;;;;;;4926456;29;20052;-83
2021/12/09 07:33:15;;;;;;;23.60;10.57;;;1.60;99.90;;;;;;4927057;29;20043;-84
2021/12/09 07:35:42;;;;;;;23.35;10.10;;;1.50;99.90;;;;;;4921542;29;20633;-83
2021/12/09 07:38:11;;;;;;;19.10;10.25;;;3.30;99.90;;;;;;4926558;29;20043;-83
2021/12/09 07:40:37;;;;;;;19.02;9.32;;;1.60;99.90;;;;;;4927397;29;20079;-82
2021/12/09 07:43:05;;;;;;;18.42;9.55;;;3.20;99.90;;;;;;4896870;29;20047;-81
2021/12/09 07:45:31;;;;;;;17.67;8.73;;;1.50;99.90;;;;;;4912452;29;20047;-82
2021/12/09 07:47:57;;;;;;;21.63;9.88;;;1.50;99.90;;;;;;4929190;29;20055;-81
2021/12/09 07:50:28;;;;;;;20.52;10.07;;;1.60;99.90;;;;;;4890572;29;20062;-80
2021/12/09 07:52:54;;;;;;;25.33;12.05;;;1.50;99.90;;;;;;4924457;28;20114;-80
2021/12/09 07:55:22;;;;;;;18.80;9.13;;;1.50;99.90;;;;;;4909118;29;20066;-80
2021/12/09 07:57:49;;;;;;;18.15;9.70;;;1.50;99.90;;;;;;4910252;29;20071;-80
2021/12/09 08:00:19;;;;;;;22.05;9.30;;;1.50;99.90;;;;;;4923961;29;20054;-78
2021/12/09 08:02:50;;;;;;;23.33;10.00;;;1.50;99.90;;;;;;4927844;29;20147;-79
2021/12/09 08:05:17;;;;;;;26.10;9.63;;;1.50;99.90;;;;;;4929797;29;20047;-80
2021/12/09 08:07:42;;;;;;;25.42;10.10;;;2.30;99.90;;;;;;4924202;29;20473;-80
2021/12/09 08:10:15;;;;;;;21.40;9.65;;;3.20;99.90;;;;;;4924571;29;20102;-80
2021/12/09 08:12:41;;;;;;;20.73;9.88;;;2.00;99.90;;;;;;4926998;29;20051;-80
2021/12/09 08:15:09;;;;;;;24.40;11.00;;;1.70;99.90;;;;;;4911896;29;20094;-79
2021/12/09 08:20:05;;;;;;;24.55;12.02;;;3.40;99.90;;;;;;4925141;29;20051;-80
2021/12/09 08:22:32;;;;;;;24.83;10.85;;;2.00;99.90;;;;;;4928881;29;20047;-80
2021/12/09 08:24:59;;;;;;;22.08;11.05;;;2.00;99.90;;;;;;4908886;29;20043;-80
2021/12/09 08:27:25;;;;;;;30.40;11.10;;;2.10;99.90;;;;;;4924245;29;20118;-79
2021/12/09 08:29:51;;;;;;;28.17;11.15;;;3.50;99.90;;;;;;4920975;29;20053;-79
2021/12/09 08:32:18;;;;;;;24.75;11.27;;;3.60;99.90;;;;;;4924496;29;20051;-81
2021/12/09 08:34:44;;;;;;;22.70;10.38;;;2.40;99.90;;;;;;4923201;29;20553;-83
2021/12/09 08:37:10;;;;;;;21.33;10.63;;;2.60;99.90;;;;;;4922681;29;20047;-83
2021/12/09 08:39:36;;;;;;;26.88;11.93;;;2.80;99.90;;;;;;4909491;29;20875;-82
2021/12/09 08:42:06;;;;;;;24.38;10.45;;;2.80;99.90;;;;;;4930169;29;20043;-83
2021/12/09 08:44:32;;;;;;;21.38;10.30;;;2.90;99.90;;;;;;4924310;29;20052;-80
2021/12/09 08:47:00;;;;;;;26.83;11.05;;;3.10;99.90;;;;;;4942070;28;20053;-83
2021/12/09 08:49:29;;;;;;;29.23;11.40;;;3.00;99.90;;;;;;4932305;29;20056;-83
2021/12/09 08:51:55;;;;;;;21.00;10.07;;;3.00;99.90;;;;;;4931197;29;20097;-83
2021/12/09 08:54:20;;;;;;;24.00;11.50;;;2.90;99.90;;;;;;4912357;29;20055;-83
2021/12/09 08:56:50;;;;;;;26.10;11.43;;;3.00;99.90;;;;;;4910362;29;20058;-82
2021/12/09 08:59:18;;;;;;;26.42;10.63;;;3.10;99.90;;;;;;4926692;29;20889;-81
2021/12/09 09:01:44;;;;;;;22.17;11.77;;;4.10;99.90;;;;;;4925339;29;20051;-83
2021/12/09 09:04:10;;;;;;;21.10;10.27;;;2.40;99.90;;;;;;4926561;29;20065;-80
2021/12/09 09:06:36;;;;;;;25.60;11.05;;;3.10;99.90;;;;;;4909581;29;20051;-81
2021/12/09 09:09:04;;;;;;;23.77;11.38;;;3.20;99.90;;;;;;4941671;28;20113;-82
2021/12/09 09:11:30;;;;;;;29.27;11.40;;;3.40;99.90;;;;;;4905621;29;20074;-78
2021/12/09 09:13:57;;;;;;;24.00;11.38;;;3.40;99.90;;;;;;4905875;29;20055;-79
2021/12/09 09:16:24;;;;;;;23.08;11.88;;;4.20;99.90;;;;;;4925086;29;20047;-78
2021/12/09 09:18:53;;;;;;;21.13;10.85;;;3.30;99.90;;;;;;4931185;29;20058;-79
2021/12/09 09:21:19;;;;;;;23.25;10.95;;;3.70;99.90;;;;;;4907513;29;20050;-79
2021/12/09 09:23:45;;;;;;;19.25;10.77;;;3.30;99.90;;;;;;4924651;29;20051;-80
2021/12/09 09:26:11;;;;;;;26.27;11.38;;;3.30;99.90;;;;;;4916292;29;20385;-80
2021/12/09 09:28:36;;;;;;;20.85;11.25;;;3.30;99.90;;;;;;4925227;29;20043;-79
2021/12/09 09:31:04;;;;;;;20.00;10.77;;;3.30;99.90;;;;;;4931090;29;20043;-79
2021/12/09 09:33:30;;;;;;;19.92;10.88;;;3.80;99.90;;;;;;4914292;29;20047;-80
2021/12/09 09:35:56;;;;;;;17.73;10.85;;;4.30;99.90;;;;;;4923579;29;20087;-81
2021/12/09 09:38:24;;;;;;;30.17;12.57;;;3.30;99.90;;;;;;4927717;29;20058;-85
2021/12/09 09:41:07;;;;;;;20.63;12.00;;;3.40;99.90;;;;;;4907658;29;20055;-84
2021/12/09 09:46:22;;;;;;;25.40;12.15;;;3.50;99.90;;;;;;4913570;29;20572;-81
2021/12/09 09:48:50;;;;;;;18.38;11.10;;;3.60;99.90;;;;;;4944274;29;20075;-85
2021/12/09 09:51:19;;;;;;;20.90;11.15;;;3.70;99.90;;;;;;4930419;29;20054;-82
2021/12/09 09:53:45;;;;;;;18.90;11.15;;;3.70;99.90;;;;;;4928931;29;20050;-80
2021/12/09 09:56:16;;;;;;;29.38;12.77;;;3.70;99.90;;;;;;4910538;29;20065;-80
2021/12/09 09:58:45;;;;;;;23.02;12.68;;;3.70;99.90;;;;;;4930276;29;20485;-84
2021/12/09 10:01:11;;;;;;;24.02;12.57;;;5.00;99.90;;;;;;4930604;29;20271;-83
2021/12/09 10:03:51;;;;;;;24.85;12.23;;;3.70;99.90;;;;;;4920411;29;20119;-83
2021/12/09 10:06:19;;;;;;;22.77;11.35;;;5.00;99.90;;;;;;4930717;29;20062;-84
2021/12/09 10:08:46;;;;;;;21.85;12.52;;;3.80;99.90;;;;;;4908114;29;20048;-83
2021/12/09 10:11:12;;;;;;;23.75;12.25;;;3.90;99.90;;;;;;4924848;29;20501;-83
2021/12/09 10:13:42;;;;;;;24.73;12.57;;;4.90;99.90;;;;;;4926639;29;20055;-83
2021/12/09 10:16:25;;;;;;;24.50;12.63;;;4.20;99.90;;;;;;4925542;29;20425;-84
2021/12/09 10:18:53;;;;;;;24.58;13.05;;;3.90;99.90;;;;;;4910311;29;20056;-85
2021/12/09 10:21:28;;;;;;;23.63;11.73;;;5.40;99.90;;;;;;4923363;29;20603;-83
2021/12/09 10:24:02;;;;;;;26.50;13.50;;;2.90;99.90;;;;;;4914636;29;20078;-84
2021/12/09 10:26:33;;;;;;;31.30;14.05;;;3.80;99.90;;;;;;4931973;29;20052;-84
2021/12/09 10:29:44;;;;;;;25.45;12.88;;;5.10;99.90;;;;;;4926322;29;20051;-84
2021/12/09 10:32:19;;;;;;;25.92;13.68;;;4.60;99.90;;;;;;4926217;29;20063;-83
2021/12/09 10:34:47;;;;;;;28.48;13.38;;;4.10;99.90;;;;;;4926087;29;20119;-83
2021/12/09 10:37:20;;;;;;;26.85;14.93;;;4.10;99.90;;;;;;4931306;29;20643;-82
2021/12/09 10:39:58;;;;;;;27.52;14.52;;;4.20;99.90;;;;;;4925519;29;20759;-82
2021/12/09 10:42:31;;;;;;;30.05;13.98;;;4.10;99.90;;;;;;4924003;29;20051;-82
2021/12/09 10:45:08;;;;;;;29.73;13.75;;;5.20;99.90;;;;;;4907780;29;20040;-85
2021/12/09 10:50:23;;;;;;;30.17;14.70;;;3.80;99.90;;;;;;4922980;29;20106;-80
2021/12/09 10:55:56;;;;;;;26.63;13.57;;;4.20;99.90;;;;;;4924893;29;20468;-81
2021/12/09 10:58:34;;;;;;;24.75;14.38;;;4.30;99.90;;;;;;4923446;29;20058;-81
2021/12/09 11:01:12;;;;;;;25.85;14.85;;;4.30;99.90;;;;;;4922338;29;20051;-82
2021/12/09 11:03:44;;;;;;;24.98;14.00;;;5.30;99.90;;;;;;4927164;29;20429;-82
2021/12/09 11:06:16;;;;;;;29.42;15.23;;;4.40;99.90;;;;;;4928660;29;20090;-82
2021/12/09 11:08:44;;;;;;;24.38;13.85;;;4.40;99.90;;;;;;4915569;29;20047;-82
2021/12/09 11:11:12;;;;;;;26.02;14.10;;;4.40;99.90;;;;;;4923230;29;20051;-82
2021/12/09 11:13:48;;;;;;;26.67;14.80;;;4.40;99.90;;;;;;4922594;29;20055;-82
2021/12/09 11:16:23;;;;;;;27.55;14.25;;;4.40;99.90;;;;;;4923446;29;20098;-81
2021/12/09 11:18:57;;;;;;;24.25;14.63;;;5.30;99.90;;;;;;4913722;29;20118;-81
2021/12/09 11:21:28;;;;;;;32.00;14.90;;;4.50;99.90;;;;;;4913798;29;20051;-80
2021/12/09 11:24:00;;;;;;;25.88;14.48;;;4.50;99.90;;;;;;4924928;29;20504;-80
2021/12/09 11:26:33;;;;;;;29.05;14.05;;;4.60;99.90;;;;;;4922569;29;20044;-80
2021/12/09 11:29:07;;;;;;;27.13;15.38;;;5.00;99.90;;;;;;4923160;29;20052;-81
2021/12/09 11:31:39;;;;;;;30.95;15.40;;;3.50;99.90;;;;;;4921606;29;20035;-80
2021/12/09 11:34:12;;;;;;;29.35;15.18;;;5.90;99.90;;;;;;4921839;29;20043;-80
2021/12/09 11:36:43;;;;;;;25.92;14.80;;;4.60;99.90;;;;;;4923129;29;20063;-80
2021/12/09 11:39:16;;;;;;;27.60;15.75;;;4.60;99.90;;;;;;4920737;29;20055;-80
2021/12/09 11:41:43;;;;;;;27.50;15.48;;;5.00;99.90;;;;;;4921750;29;20052;-80
2021/12/09 11:44:10;;;;;;;28.50;14.98;;;5.30;99.90;;;;;;4918755;29;20081;-80
2021/12/09 11:46:38;;;;;;;27.63;15.25;;;4.80;99.90;;;;;;4923563;29;20044;-80
2021/12/09 11:49:05;;;;;;;29.20;14.32;;;4.60;99.90;;;;;;4922400;29;20040;-80
2021/12/09 11:51:30;;;;;;;25.55;14.85;;;5.10;99.90;;;;;;4920097;29;20047;-81
2021/12/09 11:54:02;;;;;;;23.73;14.15;;;4.60;99.90;;;;;;4909712;29;20585;-81
2021/12/09 12:11:26;;;;;;;25.17;14.10;;;4.60;99.90;;;;;;4923566;29;20059;-80
2021/12/09 12:13:59;;;;;;;22.08;13.13;;;4.60;99.90;;;;;;4939961;29;20062;-80
2021/12/09 12:19:26;;;;;;;30.08;13.32;;;4.60;99.90;;;;;;4921786;29;20186;-80
2021/12/09 12:22:03;;;;;;;23.70;13.57;;;4.60;99.90;;;;;;4920721;29;20067;-81
2021/12/09 12:25:26;;;;;;;23.38;14.07;;;4.60;99.90;;;;;;4903390;29;20821;-79
2021/12/09 12:27:57;;;;;;;26.38;13.77;;;4.60;99.90;;;;;;4919154;29;20179;-79
2021/12/09 12:30:52;;;;;;;26.33;13.55;;;4.60;99.90;;;;;;4920771;29;20054;-79
2021/12/09 12:33:36;;;;;;;25.70;15.13;;;4.70;99.90;;;;;;4921267;29;20446;-79
2021/12/09 12:36:30;;;;;;;25.80;13.77;;;4.90;99.90;;;;;;4924341;29;20401;-80
2021/12/09 12:39:18;;;;;;;27.45;14.82;;;4.70;99.90;;;;;;4909942;29;20514;-79
2021/12/09 12:42:11;;;;;;;25.70;14.57;;;4.70;99.90;;;;;;4928930;29;20084;-79
2021/12/09 12:45:26;;;;;;;22.10;13.80;;;4.70;99.90;;;;;;4924092;29;20069;-80
2021/12/09 12:48:10;;;;;;;22.75;13.82;;;4.70;99.90;;;;;;4920705;29;20556;-80
2021/12/09 12:50:36;;;;;;;24.98;14.02;;;4.70;99.90;;;;;;4915380;29;20055;-80
2021/12/09 12:53:34;;;;;;;23.42;13.63;;;4.60;99.90;;;;;;4926470;29;20046;-80
2021/12/09 12:56:20;;;;;;;26.75;14.63;;;4.60;99.90;;;;;;4929287;29;20234;-80
2021/12/09 12:59:09;;;;;;;28.70;15.48;;;4.70;99.90;;;;;;4909357;29;20056;-81
2021/12/09 13:01:39;;;;;;;27.27;14.35;;;4.70;99.90;;;;;;4907585;29;20497;-82
2021/12/09 13:04:38;;;;;;;25.75;15.10;;;4.70;99.90;;;;;;4897611;29;20083;-82
2021/12/09 13:16:19;;;;;;;30.20;16.00;;;4.60;99.90;;;;;;4893433;29;20413;-81
2021/12/09 13:18:52;;;;;;;25.27;16.20;;;4.50;99.90;;;;;;4924163;29;20083;-81
2021/12/09 13:21:38;;;;;;;26.80;14.35;;;5.00;99.90;;;;;;4919760;29;20115;-81
2021/12/09 13:24:26;;;;;;;31.55;16.10;;;4.60;99.90;;;;;;4927161;29;20044;-81
2021/12/09 13:30:07;;;;;;;28.90;14.93;;;4.50;99.90;;;;;;4926456;29;20114;-81